Time;durP1;ratioP1;P1;durP2;ratioP2;P2;SDS_P1;SDS_P2;PMS_P1;PMS_P2;Temp;Humidity;BMP_temperature;BMP_pressure;BME280_temperature;BME280_humidity;BME280_pressure;Samples;Min_cycle;Max_cycle;Signal;HPM_P1;HPM_P2
2021/11/12 00:13:56;;;;;;;46.80;28.37;;;;;;;;;;5040928;28;20486;-59
2021/11/12 00:16:25;;;;;;;42.07;28.23;;;;;;;;;;5040183;28;20480;-60
2021/11/12 00:18:51;;;;;;;41.30;29.20;;;;;;;;;;5040719;28;20226;-59
2021/11/12 00:21:16;;;;;;;39.67;27.67;;;;;;;;;;5040351;28;20467;-60
2021/11/12 00:23:42;;;;;;;46.23;30.17;;;;;;;;;;5040564;28;20216;-59
2021/11/12 00:26:07;;;;;;;40.70;29.20;;;;;;;;;;5039743;28;20240;-59
2021/11/12 00:28:39;;;;;;;41.73;28.20;;;;;;;;;;5040072;28;20244;-59
2021/11/12 00:31:20;;;;;;;41.47;25.07;;;;;;;;;;5039163;28;20234;-60
2021/11/12 00:36:36;;;;;;;43.40;28.43;;;;;;;;;;5039495;28;20436;-59
2021/11/12 00:39:11;;;;;;;38.33;27.23;;;;;;;;;;5039948;28;20507;-59
2021/11/12 00:41:41;;;;;;;42.33;28.90;;;;;;;;;;5039248;28;20573;-59
2021/11/12 00:47:21;;;;;;;41.40;25.57;;;;;;;;;;5030316;28;20427;-60
2021/11/12 00:50:01;;;;;;;43.07;29.47;;;;;;;;;;5039526;28;20438;-59
2021/11/12 00:52:43;;;;;;;40.33;29.37;;;;;;;;;;5038912;28;20429;-59
2021/11/12 00:55:08;;;;;;;41.73;27.57;;;;;;;;;;5038727;28;20451;-59
2021/11/12 00:57:33;;;;;;;35.70;26.30;;;;;;;;;;5039451;28;20446;-59
2021/11/12 00:59:59;;;;;;;39.97;27.63;;;;;;;;;;5039730;28;20239;-59
2021/11/12 01:02:27;;;;;;;40.00;26.60;;;;;;;;;;5038032;28;20214;-59
2021/11/12 01:04:52;;;;;;;37.13;26.00;;;;;;;;;;5038755;28;20669;-60
2021/11/12 01:07:17;;;;;;;37.83;28.40;;;;;;;;;;5038102;28;20456;-59
2021/11/12 01:09:42;;;;;;;38.70;26.77;;;;;;;;;;5037179;28;20241;-60
2021/11/12 01:12:08;;;;;;;39.00;25.80;;;;;;;;;;5038321;28;20217;-59
2021/11/12 01:14:33;;;;;;;36.87;25.50;;;;;;;;;;5038257;28;20276;-60
2021/11/12 01:16:59;;;;;;;37.43;27.43;;;;;;;;;;5038608;28;20219;-59
2021/11/12 01:19:24;;;;;;;32.47;24.30;;;;;;;;;;5038106;28;20220;-59
2021/11/12 01:21:50;;;;;;;34.37;25.03;;;;;;;;;;5038293;28;20574;-60
2021/11/12 01:24:16;;;;;;;33.97;23.50;;;;;;;;;;5037375;28;20224;-59
2021/11/12 01:26:42;;;;;;;37.43;26.20;;;;;;;;;;5037591;28;20471;-59
2021/11/12 01:29:07;;;;;;;38.30;26.97;;;;;;;;;;5038741;28;20471;-60
2021/11/12 01:31:33;;;;;;;39.47;26.03;;;;;;;;;;5038830;28;20744;-59
2021/11/12 01:34:07;;;;;;;40.93;26.30;;;;;;;;;;5038894;28;20267;-59
2021/11/12 01:36:35;;;;;;;36.60;25.43;;;;;;;;;;5038840;28;20711;-60
2021/11/12 01:39:06;;;;;;;36.43;24.90;;;;;;;;;;5038075;28;20475;-59
2021/11/12 01:41:32;;;;;;;36.07;25.97;;;;;;;;;;5037194;28;20445;-60
2021/11/12 01:43:59;;;;;;;39.67;23.80;;;;;;;;;;5037810;28;20459;-60
2021/11/12 01:56:33;;;;;;;36.20;25.77;;;;;;;;;;5038189;28;20449;-60
2021/11/12 02:01:33;;;;;;;34.73;25.30;;;;;;;;;;5037690;28;20559;-59
2021/11/12 02:03:59;;;;;;;33.30;25.10;;;;;;;;;;5037706;28;20768;-59
2021/11/12 02:06:24;;;;;;;34.07;24.20;;;;;;;;;;5037675;28;20464;-59
2021/11/12 02:08:51;;;;;;;41.23;26.47;;;;;;;;;;5037826;28;20235;-60
2021/11/12 02:11:17;;;;;;;38.57;25.03;;;;;;;;;;5037176;28;20227;-60
2021/11/12 02:13:44;;;;;;;32.70;21.60;;;;;;;;;;5035732;28;20586;-59
2021/11/12 02:16:14;;;;;;;33.17;23.77;;;;;;;;;;5037209;28;20468;-61
2021/11/12 02:18:43;;;;;;;39.40;26.07;;;;;;;;;;5036860;28;20449;-59
2021/11/12 02:21:22;;;;;;;37.57;25.67;;;;;;;;;;5037505;28;20458;-59
2021/11/12 02:24:10;;;;;;;41.30;26.00;;;;;;;;;;5037401;28;20521;-59
2021/11/12 02:26:35;;;;;;;35.87;25.00;;;;;;;;;;5036850;28;20824;-59
2021/11/12 02:29:04;;;;;;;32.70;23.00;;;;;;;;;;5035274;28;20765;-58
2021/11/12 02:31:30;;;;;;;33.60;23.03;;;;;;;;;;5036327;28;20480;-59
2021/11/12 02:34:03;;;;;;;32.37;22.43;;;;;;;;;;5036085;28;20947;-59
2021/11/12 02:36:29;;;;;;;31.23;22.30;;;;;;;;;;5037263;28;20486;-59
2021/11/12 02:38:54;;;;;;;32.30;23.50;;;;;;;;;;5036438;28;20425;-59
2021/11/12 02:41:21;;;;;;;38.47;23.47;;;;;;;;;;5037173;28;20241;-59
2021/11/12 02:43:47;;;;;;;31.50;23.20;;;;;;;;;;5037042;28;20242;-58
2021/11/12 02:46:20;;;;;;;32.93;21.83;;;;;;;;;;5036746;28;20514;-59
2021/11/12 02:48:46;;;;;;;39.10;24.60;;;;;;;;;;5035515;28;20481;-59
2021/11/12 02:51:20;;;;;;;35.37;23.10;;;;;;;;;;5036747;28;20456;-59
2021/11/12 02:53:46;;;;;;;36.07;22.73;;;;;;;;;;5036274;28;20229;-59
2021/11/12 02:56:15;;;;;;;36.20;25.30;;;;;;;;;;5036399;28;20472;-59
2021/11/12 02:58:41;;;;;;;31.47;21.90;;;;;;;;;;5036191;28;20555;-60
2021/11/12 03:01:07;;;;;;;37.20;24.83;;;;;;;;;;5036748;28;20837;-60
2021/11/12 03:03:33;;;;;;;38.60;23.17;;;;;;;;;;5036650;28;20790;-59
2021/11/12 03:05:59;;;;;;;32.10;22.30;;;;;;;;;;5036377;28;20438;-59
2021/11/12 03:08:24;;;;;;;36.00;23.70;;;;;;;;;;5036668;28;20337;-59
2021/11/12 03:10:52;;;;;;;37.07;25.40;;;;;;;;;;5035310;28;20521;-59
2021/11/12 03:13:17;;;;;;;35.90;23.70;;;;;;;;;;5036492;28;20288;-59
2021/11/12 03:15:43;;;;;;;33.10;25.30;;;;;;;;;;5036246;28;20464;-59
2021/11/12 03:18:09;;;;;;;36.30;24.03;;;;;;;;;;5036396;28;20286;-59
2021/11/12 03:20:34;;;;;;;38.30;25.17;;;;;;;;;;5035571;28;20269;-60
2021/11/12 03:23:05;;;;;;;32.00;21.73;;;;;;;;;;5034444;28;20810;-60
2021/11/12 03:31:03;;;;;;;37.00;25.20;;;;;;;;;;5040614;28;20263;-60
2021/11/12 04:00:29;;;;;;;33.57;21.10;;;;;;;;;;5036451;28;20870;-59
2021/11/12 04:20:03;;;;;;;28.83;21.80;;;;;;;;;;5051480;28;20471;-59
2021/11/12 04:30:57;;;;;;;31.17;21.07;;;;;;;;;;5039054;28;20467;-61
2021/11/12 04:49:35;;;;;;;30.47;20.83;;;;;;;;;;5047242;28;20449;-60
2021/11/12 05:03:25;;;;;;;30.60;19.13;;;;;;;;;;5049966;28;20469;-61
2021/11/12 05:11:32;;;;;;;33.90;21.73;;;;;;;;;;5049072;28;20458;-61
2021/11/12 05:57:05;;;;;;;31.27;22.13;;;;;;;;;;5041738;28;20519;-61
2021/11/12 05:59:30;;;;;;;34.13;23.03;;;;;;;;;;5033118;28;20464;-62
2021/11/12 06:01:56;;;;;;;38.10;24.30;;;;;;;;;;5041118;28;20225;-61
2021/11/12 06:04:21;;;;;;;35.27;22.03;;;;;;;;;;5051546;28;20217;-62
2021/11/12 06:06:47;;;;;;;34.40;22.27;;;;;;;;;;5041748;28;20225;-62
2021/11/12 06:09:12;;;;;;;35.70;23.17;;;;;;;;;;5046082;28;20240;-61
2021/11/12 06:11:38;;;;;;;35.70;23.60;;;;;;;;;;5048336;28;20667;-63
2021/11/12 06:14:04;;;;;;;43.87;27.37;;;;;;;;;;5041614;28;20220;-62
2021/11/12 06:16:29;;;;;;;41.23;24.73;;;;;;;;;;5041148;28;20244;-62
2021/11/12 06:18:55;;;;;;;37.70;24.90;;;;;;;;;;5045752;28;20464;-61
2021/11/12 06:21:21;;;;;;;36.37;23.83;;;;;;;;;;5047213;28;20233;-61
2021/11/12 06:23:46;;;;;;;39.07;25.90;;;;;;;;;;5042508;28;20221;-62
2021/11/12 06:26:12;;;;;;;42.20;26.57;;;;;;;;;;5040678;28;21060;-61
2021/11/12 06:28:37;;;;;;;39.93;24.30;;;;;;;;;;5045959;28;20553;-61
2021/11/12 06:31:03;;;;;;;39.87;26.10;;;;;;;;;;5047621;28;20232;-62
2021/11/12 06:33:29;;;;;;;41.00;25.20;;;;;;;;;;5041818;28;20359;-61
2021/11/12 06:35:55;;;;;;;39.00;25.67;;;;;;;;;;5040892;28;20220;-61
2021/11/12 06:38:24;;;;;;;33.10;22.53;;;;;;;;;;5046404;28;20481;-61
2021/11/12 06:40:50;;;;;;;41.43;26.20;;;;;;;;;;5047565;28;20959;-61
2021/11/12 06:51:20;;;;;;;36.37;23.83;;;;;;;;;;5028402;28;20467;-61
2021/11/12 06:53:45;;;;;;;37.67;23.57;;;;;;;;;;5040833;28;20785;-62
2021/11/12 06:56:11;;;;;;;41.60;25.43;;;;;;;;;;5046352;28;20457;-61
2021/11/12 06:58:40;;;;;;;36.83;23.90;;;;;;;;;;5022195;28;20230;-61
2021/11/12 07:01:06;;;;;;;32.00;21.33;;;;;;;;;;5045141;28;20464;-61
2021/11/12 07:03:32;;;;;;;29.83;19.90;;;;;;;;;;5046721;28;20455;-61
2021/11/12 07:05:57;;;;;;;31.37;22.40;;;;;;;;;;5042559;28;20467;-61
2021/11/12 07:08:23;;;;;;;35.10;22.63;;;;;;;;;;5039669;28;20480;-61
2021/11/12 07:10:52;;;;;;;34.73;23.13;;;;;;;;;;5044398;28;20233;-61
2021/11/12 07:13:18;;;;;;;38.43;25.20;;;;;;;;;;5045920;28;20521;-60
2021/11/12 07:15:43;;;;;;;40.63;25.43;;;;;;;;;;5042286;28;20939;-61
2021/11/12 07:18:09;;;;;;;43.63;27.53;;;;;;;;;;5039597;28;20305;-62
2021/11/12 07:20:34;;;;;;;40.67;27.57;;;;;;;;;;5045270;28;20241;-61
2021/11/12 07:22:59;;;;;;;43.30;26.80;;;;;;;;;;5047281;28;20217;-61
2021/11/12 07:25:24;;;;;;;43.40;27.70;;;;;;;;;;5041577;28;20267;-61
2021/11/12 07:27:50;;;;;;;42.13;27.27;;;;;;;;;;5040022;28;20249;-62
2021/11/12 07:30:19;;;;;;;40.83;27.60;;;;;;;;;;5045565;28;20225;-61
2021/11/12 07:32:45;;;;;;;44.27;30.30;;;;;;;;;;5047169;28;20474;-61
2021/11/12 07:35:12;;;;;;;40.97;27.63;;;;;;;;;;5041477;28;20472;-62
2021/11/12 07:37:38;;;;;;;50.00;30.23;;;;;;;;;;5039933;28;20494;-61
2021/11/12 07:40:08;;;;;;;38.80;28.67;;;;;;;;;;5044957;28;20860;-62
2021/11/12 07:47:29;;;;;;;37.70;25.43;;;;;;;;;;5039513;28;20229;-61
2021/11/12 07:49:57;;;;;;;36.60;23.83;;;;;;;;;;5044588;28;20806;-62
2021/11/12 07:52:27;;;;;;;36.53;23.47;;;;;;;;;;5046099;28;20221;-61
2021/11/12 07:54:53;;;;;;;35.80;23.90;;;;;;;;;;5043141;28;20974;-61
2021/11/12 07:57:18;;;;;;;36.17;24.50;;;;;;;;;;5032433;28;20481;-62
2021/11/12 07:59:44;;;;;;;38.63;25.90;;;;;;;;;;5035630;28;20466;-62
2021/11/12 08:02:11;;;;;;;40.80;25.93;;;;;;;;;;5039785;28;20217;-62
2021/11/12 08:04:37;;;;;;;35.50;24.33;;;;;;;;;;5041311;28;20271;-61
2021/11/12 08:07:02;;;;;;;33.70;27.30;;;;;;;;;;5047011;28;20932;-61
2021/11/12 08:09:33;;;;;;;38.80;25.07;;;;;;;;;;5044071;28;20281;-62
2021/11/12 08:12:05;;;;;;;39.50;26.30;;;;;;;;;;5039797;28;20324;-61
2021/11/12 08:19:38;;;;;;;39.37;24.60;;;;;;;;;;5049649;28;20471;-61
2021/11/12 08:22:09;;;;;;;37.30;25.10;;;;;;;;;;5032770;28;20467;-62
2021/11/12 08:24:45;;;;;;;34.87;23.93;;;;;;;;;;5042956;28;20463;-61
2021/11/12 08:30:16;;;;;;;37.20;25.70;;;;;;;;;;5014122;28;20472;-62
2021/11/12 08:35:42;;;;;;;42.00;26.97;;;;;;;;;;5045622;28;20438;-62
2021/11/12 08:38:23;;;;;;;39.13;27.17;;;;;;;;;;5042232;28;20459;-62
2021/11/12 08:45:59;;;;;;;38.03;26.07;;;;;;;;;;5049803;28;20238;-61
2021/11/12 08:48:41;;;;;;;47.03;28.40;;;;;;;;;;5047573;28;20459;-61
2021/11/12 08:51:12;;;;;;;41.60;26.70;;;;;;;;;;5029575;28;20478;-62
2021/11/12 08:53:38;;;;;;;40.10;27.77;;;;;;;;;;5043329;28;20515;-62
2021/11/12 08:56:06;;;;;;;34.37;22.97;;;;;;;;;;5048297;28;20996;-62
2021/11/12 08:58:32;;;;;;;31.07;25.13;;;;;;;;;;5023500;28;20461;-61
2021/11/12 09:00:57;;;;;;;36.10;24.77;;;;;;;;;;5048608;28;20468;-61
2021/11/12 09:03:22;;;;;;;40.50;27.43;;;;;;;;;;5048962;28;20521;-62
2021/11/12 09:05:48;;;;;;;37.73;25.67;;;;;;;;;;5046425;28;20656;-61
2021/11/12 09:08:13;;;;;;;41.60;25.83;;;;;;;;;;5048670;28;20270;-61
2021/11/12 09:10:38;;;;;;;40.70;26.07;;;;;;;;;;5043118;28;20225;-62
2021/11/12 09:13:17;;;;;;;35.27;25.90;;;;;;;;;;5042167;28;20231;-61
2021/11/12 09:15:48;;;;;;;36.07;25.30;;;;;;;;;;5047140;28;20686;-62
2021/11/12 09:18:13;;;;;;;41.97;24.20;;;;;;;;;;5048828;28;20484;-62
2021/11/12 09:20:39;;;;;;;37.87;25.07;;;;;;;;;;5044519;28;20467;-62
2021/11/12 09:23:04;;;;;;;35.17;22.33;;;;;;;;;;5041380;28;20252;-60
2021/11/12 09:25:29;;;;;;;36.77;24.20;;;;;;;;;;5046494;28;20224;-62
2021/11/12 09:27:55;;;;;;;33.90;23.93;;;;;;;;;;5049251;28;20244;-62
2021/11/12 09:30:22;;;;;;;33.27;23.40;;;;;;;;;;5044476;28;20278;-62
2021/11/12 09:32:49;;;;;;;32.80;23.60;;;;;;;;;;5042039;28;20222;-62
2021/11/12 09:35:14;;;;;;;29.83;20.97;;;;;;;;;;5045319;28;20504;-62
2021/11/12 09:37:40;;;;;;;28.83;20.73;;;;;;;;;;5047708;28;20795;-61
2021/11/12 09:40:06;;;;;;;27.17;19.60;;;;;;;;;;5043773;28;20610;-61
2021/11/12 09:42:33;;;;;;;24.70;17.93;;;;;;;;;;5042208;28;20222;-62
2021/11/12 09:44:59;;;;;;;25.10;17.73;;;;;;;;;;5046316;28;20476;-63
2021/11/12 09:47:27;;;;;;;27.10;17.63;;;;;;;;;;5048071;28;20463;-62
2021/11/12 09:50:02;;;;;;;25.00;17.80;;;;;;;;;;5044577;28;20553;-62
2021/11/12 09:52:30;;;;;;;26.73;17.17;;;;;;;;;;5041396;28;20455;-62
2021/11/12 09:54:55;;;;;;;23.47;16.70;;;;;;;;;;5044409;28;20527;-62
2021/11/12 09:57:22;;;;;;;27.53;19.17;;;;;;;;;;5042546;28;20499;-62
2021/11/12 09:59:50;;;;;;;25.23;16.10;;;;;;;;;;5038162;28;20645;-60
2021/11/12 10:02:16;;;;;;;21.60;16.27;;;;;;;;;;5041713;28;20478;-60
2021/11/12 10:04:42;;;;;;;21.50;15.10;;;;;;;;;;5052025;28;20603;-59
2021/11/12 10:07:13;;;;;;;24.10;18.57;;;;;;;;;;5041349;28;20493;-59
2021/11/12 10:09:40;;;;;;;26.80;18.77;;;;;;;;;;5042850;28;20986;-58
2021/11/12 10:12:07;;;;;;;24.53;17.80;;;;;;;;;;5048157;28;20468;-60
2021/11/12 10:14:41;;;;;;;29.17;18.90;;;;;;;;;;5047257;28;20470;-59
2021/11/12 10:17:07;;;;;;;34.53;21.53;;;;;;;;;;5041202;28;20570;-60
2021/11/12 10:19:46;;;;;;;28.30;20.63;;;;;;;;;;5042111;28;20467;-59
2021/11/12 10:22:13;;;;;;;26.00;20.90;;;;;;;;;;5030303;28;20641;-60
2021/11/12 10:24:41;;;;;;;27.50;20.40;;;;;;;;;;5041673;28;20582;-59
2021/11/12 10:27:22;;;;;;;26.40;18.83;;;;;;;;;;5046928;28;20526;-59
2021/11/12 10:29:53;;;;;;;23.20;18.90;;;;;;;;;;5047786;28;20469;-59
2021/11/12 10:32:20;;;;;;;23.17;17.17;;;;;;;;;;5045580;28;20569;-59
2021/11/12 10:34:47;;;;;;;25.40;18.77;;;;;;;;;;5040922;28;20532;-60
2021/11/12 10:37:20;;;;;;;19.20;15.07;;;;;;;;;;5042321;28;20515;-59
2021/11/12 10:39:50;;;;;;;18.60;14.90;;;;;;;;;;5047747;28;20538;-58
2021/11/12 10:42:20;;;;;;;20.40;14.90;;;;;;;;;;5047330;28;20517;-59
2021/11/12 10:44:53;;;;;;;17.90;14.57;;;;;;;;;;5027939;28;20456;-59
2021/11/12 10:47:22;;;;;;;18.37;14.73;;;;;;;;;;5041149;28;20467;-59
2021/11/12 10:49:55;;;;;;;19.60;15.73;;;;;;;;;;5045498;28;20461;-59
2021/11/12 10:52:23;;;;;;;14.77;12.57;;;;;;;;;;5047891;28;20466;-59
2021/11/12 10:54:58;;;;;;;18.63;14.83;;;;;;;;;;5043852;28;20900;-58
2021/11/12 10:57:27;;;;;;;16.77;14.07;;;;;;;;;;5031436;28;20468;-60
2021/11/12 11:00:03;;;;;;;15.60;13.80;;;;;;;;;;5038700;28;20797;-59
2021/11/12 11:02:38;;;;;;;14.80;13.27;;;;;;;;;;5027473;28;20467;-59
2021/11/12 11:05:08;;;;;;;22.70;15.07;;;;;;;;;;5049061;28;20981;-59
2021/11/12 11:07:34;;;;;;;18.10;14.63;;;;;;;;;;5042007;28;20950;-59
2021/11/12 11:10:01;;;;;;;16.53;14.33;;;;;;;;;;5040376;28;20495;-59
2021/11/12 11:12:32;;;;;;;16.60;14.40;;;;;;;;;;5045463;28;20479;-59
2021/11/12 11:15:11;;;;;;;17.83;15.03;;;;;;;;;;5047551;28;20467;-58
2021/11/12 11:17:41;;;;;;;20.90;16.40;;;;;;;;;;5044560;28;20454;-59
2021/11/12 11:20:09;;;;;;;17.70;15.10;;;;;;;;;;5040405;28;20961;-59
2021/11/12 11:22:50;;;;;;;16.93;15.13;;;;;;;;;;5042202;28;20971;-59
2021/11/12 11:25:15;;;;;;;15.57;14.00;;;;;;;;;;5028141;28;20473;-59
2021/11/12 11:27:43;;;;;;;18.90;14.60;;;;;;;;;;5040463;28;20464;-59
2021/11/12 11:30:09;;;;;;;17.47;15.57;;;;;;;;;;5028153;28;20274;-59
2021/11/12 11:32:36;;;;;;;15.90;13.47;;;;;;;;;;5039978;28;21046;-59
2021/11/12 11:35:01;;;;;;;16.43;13.47;;;;;;;;;;5047387;28;20746;-59
2021/11/12 11:37:27;;;;;;;17.90;14.20;;;;;;;;;;5046669;28;20541;-59
2021/11/12 11:39:53;;;;;;;15.03;13.03;;;;;;;;;;5041093;28;20300;-59
2021/11/12 11:42:18;;;;;;;19.33;15.30;;;;;;;;;;5039459;28;20229;-59
2021/11/12 11:44:44;;;;;;;14.63;13.00;;;;;;;;;;5029384;28;20475;-59
2021/11/12 11:47:10;;;;;;;18.17;13.10;;;;;;;;;;5049229;28;20227;-59
2021/11/12 11:49:37;;;;;;;15.33;12.20;;;;;;;;;;5044301;28;20530;-58
2021/11/12 11:52:04;;;;;;;14.00;11.10;;;;;;;;;;5044167;28;20855;-59
2021/11/12 11:54:44;;;;;;;11.83;10.63;;;;;;;;;;5050333;28;20468;-59
2021/11/12 11:57:16;;;;;;;11.83;9.60;;;;;;;;;;5047010;28;20943;-59
2021/11/12 11:59:43;;;;;;;12.90;9.70;;;;;;;;;;5038704;28;20463;-58
2021/11/12 12:02:16;;;;;;;14.20;12.00;;;;;;;;;;5043931;28;20472;-59
2021/11/12 12:04:47;;;;;;;16.60;11.90;;;;;;;;;;5053737;28;20470;-59
2021/11/12 12:07:29;;;;;;;13.07;11.47;;;;;;;;;;5044114;28;20462;-59
2021/11/12 12:10:00;;;;;;;12.63;10.37;;;;;;;;;;5043842;28;20587;-59
2021/11/12 12:12:29;;;;;;;11.63;10.43;;;;;;;;;;5048671;28;20506;-58
2021/11/12 12:14:56;;;;;;;11.00;9.90;;;;;;;;;;5050550;28;20837;-59
2021/11/12 12:17:25;;;;;;;14.03;11.03;;;;;;;;;;5045933;28;20818;-59
2021/11/12 12:30:52;;;;;;;12.43;11.03;;;;;;;;;;5047052;28;20526;-59
2021/11/12 12:37:57;;;;;;;12.70;10.97;;;;;;;;;;5041741;28;20835;-62
2021/11/12 13:25:50;;;;;;;9.87;8.87;;;;;;;;;;5045083;28;20502;-62
2021/11/12 13:28:29;;;;;;;8.47;7.43;;;;;;;;;;5048756;28;20479;-63
2021/11/12 13:31:02;;;;;;;9.87;7.30;;;;;;;;;;5048490;28;20468;-62
2021/11/12 13:33:42;;;;;;;7.50;6.60;;;;;;;;;;5043596;28;20571;-62
2021/11/12 13:36:15;;;;;;;8.00;7.20;;;;;;;;;;5041596;28;20508;-62
2021/11/12 13:38:43;;;;;;;10.10;6.93;;;;;;;;;;5045047;28;20468;-62
2021/11/12 13:41:11;;;;;;;7.97;6.63;;;;;;;;;;5048437;28;20484;-62
2021/11/12 13:43:42;;;;;;;7.73;6.93;;;;;;;;;;5045692;28;20924;-62
2021/11/12 13:46:09;;;;;;;8.80;7.50;;;;;;;;;;5041553;28;20456;-62
2021/11/12 13:48:48;;;;;;;8.37;7.47;;;;;;;;;;5043191;28;20467;-62
2021/11/12 13:51:16;;;;;;;8.87;7.10;;;;;;;;;;5029511;28;20459;-62
2021/11/12 13:53:42;;;;;;;6.90;6.20;;;;;;;;;;5041551;28;20469;-62
2021/11/12 13:56:10;;;;;;;8.40;7.37;;;;;;;;;;5047580;28;20941;-62
2021/11/12 13:58:36;;;;;;;7.50;6.77;;;;;;;;;;5023465;28;20226;-63
2021/11/12 14:01:02;;;;;;;7.97;7.03;;;;;;;;;;5046574;28;20568;-62
2021/11/12 14:03:39;;;;;;;7.93;6.87;;;;;;;;;;5047287;28;20231;-62
2021/11/12 14:06:10;;;;;;;7.90;6.20;;;;;;;;;;5044864;28;20245;-62
2021/11/12 14:08:46;;;;;;;6.10;5.50;;;;;;;;;;5047052;28;20523;-62
2021/11/12 14:11:26;;;;;;;7.23;6.00;;;;;;;;;;5044862;28;20499;-63
2021/11/12 14:13:54;;;;;;;7.13;6.17;;;;;;;;;;5027537;28;20467;-63
2021/11/12 14:16:31;;;;;;;7.07;5.70;;;;;;;;;;5041010;28;20457;-64
2021/11/12 14:21:54;;;;;;;6.70;6.00;;;;;;;;;;5048277;28;20494;-62
2021/11/12 14:24:37;;;;;;;7.60;6.90;;;;;;;;;;5046709;28;20447;-62
2021/11/12 14:27:10;;;;;;;7.37;6.63;;;;;;;;;;5031007;28;20484;-62
2021/11/12 14:29:57;;;;;;;8.27;7.40;;;;;;;;;;5041010;28;20646;-63
2021/11/12 14:35:33;;;;;;;12.37;7.93;;;;;;;;;;5033977;28;20532;-62
2021/11/12 14:38:12;;;;;;;9.40;8.47;;;;;;;;;;5040632;28;20516;-62
2021/11/12 14:41:11;;;;;;;10.20;7.47;;;;;;;;;;5040830;28;20464;-61
2021/11/12 14:44:22;;;;;;;9.30;8.20;;;;;;;;;;5037043;28;20463;-61
2021/11/12 14:46:57;;;;;;;10.33;8.30;;;;;;;;;;5032450;28;20463;-61
2021/11/12 14:49:32;;;;;;;9.00;8.10;;;;;;;;;;5039239;28;20473;-62
2021/11/12 14:54:39;;;;;;;10.40;9.30;;;;;;;;;;5029434;28;20449;-62
2021/11/12 14:57:12;;;;;;;11.10;8.90;;;;;;;;;;5036223;28;20456;-63
2021/11/12 14:59:39;;;;;;;10.30;9.07;;;;;;;;;;5034032;28;20466;-62
2021/11/12 15:02:07;;;;;;;10.83;8.97;;;;;;;;;;5040598;28;20455;-62
2021/11/12 15:04:32;;;;;;;13.67;10.13;;;;;;;;;;5049999;28;20460;-63
2021/11/12 15:06:58;;;;;;;10.80;9.53;;;;;;;;;;5039327;28;20472;-67
2021/11/12 15:09:32;;;;;;;10.00;9.00;;;;;;;;;;5043389;28;20267;-62
2021/11/12 15:11:59;;;;;;;15.07;11.20;;;;;;;;;;5046101;28;20796;-63
2021/11/12 15:14:29;;;;;;;10.63;9.50;;;;;;;;;;5031896;28;20515;-62
2021/11/12 15:16:55;;;;;;;10.10;8.10;;;;;;;;;;5031930;28;20462;-62
2021/11/12 15:19:22;;;;;;;14.50;9.80;;;;;;;;;;5030849;28;20563;-62
2021/11/12 15:21:56;;;;;;;13.30;9.47;;;;;;;;;;5031309;28;20507;-63
2021/11/12 15:26:59;;;;;;;12.47;9.30;;;;;;;;;;5031444;28;20465;-62
2021/11/12 15:29:28;;;;;;;12.43;9.57;;;;;;;;;;5031625;28;20604;-62
2021/11/12 15:34:42;;;;;;;13.67;11.60;;;;;;;;;;5033791;28;20518;-62
2021/11/12 15:37:12;;;;;;;12.47;11.17;;;;;;;;;;5033732;28;20506;-61
2021/11/12 15:39:42;;;;;;;13.73;12.20;;;;;;;;;;5033274;28;20460;-62
2021/11/12 15:44:54;;;;;;;14.33;11.60;;;;;;;;;;5032789;28;20558;-61
2021/11/12 15:49:44;;;;;;;13.13;11.23;;;;;;;;;;5033256;28;20530;-61
2021/11/12 15:52:27;;;;;;;12.50;10.17;;;;;;;;;;5033531;28;20316;-62
2021/11/12 15:55:02;;;;;;;10.97;9.30;;;;;;;;;;5033727;28;20232;-62
2021/11/12 15:57:54;;;;;;;13.00;10.20;;;;;;;;;;5033939;28;20544;-63
2021/11/12 16:00:33;;;;;;;11.60;9.10;;;;;;;;;;5033116;28;20461;-63
2021/11/12 16:09:00;;;;;;;12.00;10.37;;;;;;;;;;5032908;28;20496;-62
2021/11/12 16:11:32;;;;;;;15.50;12.10;;;;;;;;;;5031292;28;20460;-63
2021/11/12 16:16:48;;;;;;;13.63;10.57;;;;;;;;;;5033307;28;20455;-63
2021/11/12 16:19:21;;;;;;;11.73;10.33;;;;;;;;;;5032774;28;20432;-63
2021/11/12 16:27:01;;;;;;;14.27;11.00;;;;;;;;;;5033581;28;20471;-63
2021/11/12 16:29:45;;;;;;;16.13;11.17;;;;;;;;;;5032838;28;20535;-62
2021/11/12 16:32:20;;;;;;;15.93;13.20;;;;;;;;;;5033174;28;20940;-62
2021/11/12 16:34:48;;;;;;;17.63;13.50;;;;;;;;;;5036176;28;20457;-63
2021/11/12 16:37:17;;;;;;;15.90;12.67;;;;;;;;;;5036662;28;20536;-63
2021/11/12 16:39:50;;;;;;;16.07;12.10;;;;;;;;;;5036462;28;20804;-63
2021/11/12 16:45:11;;;;;;;16.37;12.83;;;;;;;;;;5025923;28;20576;-63
2021/11/12 16:47:45;;;;;;;16.90;13.90;;;;;;;;;;5036825;28;20484;-64
2021/11/12 16:50:25;;;;;;;17.87;13.57;;;;;;;;;;5036621;28;20496;-63
2021/11/12 16:55:29;;;;;;;17.80;13.60;;;;;;;;;;5036277;28;20869;-62
2021/11/12 16:58:03;;;;;;;15.43;13.83;;;;;;;;;;5036048;28;20213;-62
2021/11/12 17:02:58;;;;;;;14.60;12.93;;;;;;;;;;5035848;28;20532;-62
2021/11/12 17:05:40;;;;;;;20.33;15.13;;;;;;;;;;5036188;28;20226;-63
2021/11/12 17:08:15;;;;;;;15.87;12.50;;;;;;;;;;5035795;28;20454;-63
2021/11/12 17:19:07;;;;;;;19.57;15.50;;;;;;;;;;5036259;28;20523;-62
2021/11/12 17:22:27;;;;;;;19.07;14.63;;;;;;;;;;5035735;28;20544;-63
2021/11/12 17:46:35;;;;;;;22.33;15.30;;;;;;;;;;5035497;28;20935;-63
2021/11/12 17:49:12;;;;;;;23.87;14.77;;;;;;;;;;5035634;28;20508;-62
2021/11/12 17:51:46;;;;;;;20.63;15.23;;;;;;;;;;5034969;28;20470;-62
2021/11/12 18:02:33;;;;;;;19.50;15.63;;;;;;;;;;5035200;28;20491;-63
2021/11/12 18:05:13;;;;;;;19.97;14.60;;;;;;;;;;5035349;28;20448;-63
2021/11/12 21:45:30;;;;;;;44.80;31.33;;;;;;;;;;5035365;28;20488;-63
2021/11/12 21:47:55;;;;;;;38.67;28.47;;;;;;;;;;5035548;28;20530;-62
2021/11/12 21:50:20;;;;;;;43.63;28.03;;;;;;;;;;5035193;28;20476;-63
2021/11/12 21:52:46;;;;;;;37.20;28.00;;;;;;;;;;5035677;28;20653;-62
2021/11/12 21:55:11;;;;;;;43.13;30.33;;;;;;;;;;5035877;28;20312;-62
2021/11/12 21:57:36;;;;;;;40.57;29.80;;;;;;;;;;5035675;28;20225;-62
2021/11/12 22:00:04;;;;;;;41.27;28.83;;;;;;;;;;5035829;28;20703;-63
2021/11/12 22:02:30;;;;;;;40.27;31.23;;;;;;;;;;5035076;28;20231;-62
2021/11/12 22:04:55;;;;;;;41.90;29.47;;;;;;;;;;5035350;28;20438;-62
2021/11/12 22:07:22;;;;;;;41.47;28.63;;;;;;;;;;5035193;28;20311;-62
2021/11/12 22:09:47;;;;;;;44.60;30.93;;;;;;;;;;5034991;28;20236;-62
2021/11/12 22:12:13;;;;;;;39.07;27.67;;;;;;;;;;5035638;28;20468;-62
2021/11/12 22:14:38;;;;;;;42.40;29.67;;;;;;;;;;5034619;28;20351;-63
2021/11/12 22:17:03;;;;;;;41.83;30.33;;;;;;;;;;5035194;28;20224;-62
2021/11/12 22:19:29;;;;;;;43.90;30.90;;;;;;;;;;5033732;28;20218;-63
2021/11/12 22:21:54;;;;;;;42.00;30.43;;;;;;;;;;5035279;28;20234;-62
2021/11/12 22:24:20;;;;;;;42.77;30.80;;;;;;;;;;5034910;28;20242;-62
2021/11/12 22:26:49;;;;;;;41.93;28.97;;;;;;;;;;5035040;28;20221;-62
2021/11/12 22:29:15;;;;;;;40.37;28.97;;;;;;;;;;5034959;28;20220;-62
2021/11/12 22:31:41;;;;;;;43.87;31.37;;;;;;;;;;5033752;28;20432;-62
2021/11/12 22:34:06;;;;;;;42.43;29.93;;;;;;;;;;5034846;28;20461;-62
2021/11/12 22:36:31;;;;;;;42.87;29.93;;;;;;;;;;5034621;28;20651;-61
2021/11/12 22:38:57;;;;;;;42.93;29.67;;;;;;;;;;5035262;28;20214;-62
2021/11/12 22:41:22;;;;;;;40.67;30.80;;;;;;;;;;5034512;28;20233;-62
2021/11/12 22:43:58;;;;;;;41.80;30.33;;;;;;;;;;5034826;28;20226;-62
2021/11/12 22:46:25;;;;;;;39.00;28.93;;;;;;;;;;5034825;28;20731;-62
2021/11/12 22:48:50;;;;;;;39.80;29.53;;;;;;;;;;5034992;28;20483;-62
2021/11/12 22:51:16;;;;;;;41.70;29.47;;;;;;;;;;5034991;28;20602;-62
2021/11/12 22:53:41;;;;;;;41.43;29.57;;;;;;;;;;5034680;28;20222;-62
2021/11/12 22:56:06;;;;;;;42.50;29.87;;;;;;;;;;5034952;28;20218;-61
2021/11/12 22:58:31;;;;;;;39.17;29.30;;;;;;;;;;5034555;28;20260;-62
2021/11/12 23:01:01;;;;;;;41.07;28.60;;;;;;;;;;5034684;28;20221;-62
2021/11/12 23:03:27;;;;;;;38.17;28.77;;;;;;;;;;5034601;28;20218;-61
2021/11/12 23:05:52;;;;;;;39.83;29.33;;;;;;;;;;5034995;28;20518;-62
2021/11/12 23:08:17;;;;;;;36.83;28.20;;;;;;;;;;5034440;28;20300;-61
2021/11/12 23:10:43;;;;;;;37.73;28.77;;;;;;;;;;5033933;28;20402;-62
2021/11/12 23:13:08;;;;;;;42.70;31.37;;;;;;;;;;5034857;28;20226;-62
2021/11/12 23:15:33;;;;;;;42.23;29.73;;;;;;;;;;5034018;28;20223;-62
2021/11/12 23:17:59;;;;;;;45.03;30.67;;;;;;;;;;5034690;28;20679;-62
2021/11/12 23:20:24;;;;;;;42.83;31.87;;;;;;;;;;5033977;28;20565;-62
2021/11/12 23:22:49;;;;;;;40.03;29.93;;;;;;;;;;5034692;28;20667;-61
2021/11/12 23:25:15;;;;;;;45.50;31.33;;;;;;;;;;5034524;28;20218;-62
2021/11/12 23:27:40;;;;;;;41.13;28.67;;;;;;;;;;5034137;28;20218;-62
2021/11/12 23:30:06;;;;;;;42.83;30.40;;;;;;;;;;5034332;28;20223;-62
2021/11/12 23:32:31;;;;;;;41.53;29.27;;;;;;;;;;5033101;28;20216;-62
2021/11/12 23:34:56;;;;;;;48.00;33.00;;;;;;;;;;5034467;28;20211;-61
2021/11/12 23:37:22;;;;;;;41.23;30.13;;;;;;;;;;5033905;28;20279;-62
2021/11/12 23:39:47;;;;;;;37.40;28.60;;;;;;;;;;5034320;28;20211;-62
2021/11/12 23:42:12;;;;;;;43.00;29.17;;;;;;;;;;5035105;28;20233;-62